Gerlach, NV

6:37 PM PDT on September 04, 2015 (GMT -0700)
Alturas Municipal | | Change Station
CLOSE
Current Station
Airport
Location: Alturas,
Elevation: 4373 ft
Nearby Weather Stations
Active Advisory: Blowing Dust Advisory

Elev 4373 ft 41.49 °N, 120.56 °W | Updated 42 minutes ago

Partly Cloudy
Partly Cloudy
53 °F
Feels Like 53 °F
N
6
Wind Variable Wind from SW

Today
High -- | Low -- °F
--% Chance of Precip.
Yesterday
High -- | Low -- °F
Precip. -- in
6:27 AM 7:26 PM
Waning Gibbous, 54% visible
Pressure 29.90 in
Visibility 10.0 miles
Clouds Scattered Clouds 6500 ft
Mostly Cloudy 8500 ft
Overcast 10000 ft
Dew Point 33 °F
Humidity 47%
Rainfall 0.14 in
Snow Depth Not available.
UV 0 out of 12
Pollen 8.30 out of 12
Air Quality Not available.
Flu Activity Not available.
METAR KAAT 050055Z AUTO 22005KT 10SM SCT065 BKN085 OVC100 12/01 A2990 RMK AO2 RAB04E16 SLP124 P0000 T01170006
Pressure 29.90 in
Visibility 10.0 miles
Clouds Scattered Clouds 6500 ft
Mostly Cloudy 8500 ft
Overcast 10000 ft
Dew Point 33 °F
Humidity 47%
Rainfall 0.14 in
Snow Depth Not available.
UV 0 out of 12
Pollen 8.30 out of 12
Air Quality Not available.
Flu Activity Not available.
METAR KAAT 050055Z AUTO 22005KT 10SM SCT065 BKN085 OVC100 12/01 A2990 RMK AO2 RAB04E16 SLP124 P0000 T01170006

10-Day Weather Forecast

×

Almanac

Astronomy

Sep. 04, 2015 Rise Set
Actual Time
Civil Twilight
Nautical Twilight
Astronomical Twilight
Moon
Length of Visible Light
Length of Day
Tomorrow will be .
, % of the Moon is Illuminated

Today's Extremes

State Highs State Lows

Community

WunderPhotos

Upload Photos

1,852,374 photos uploaded!

WunderBlogs® & News

Nearby

Air Quality

  Air Quality AQ Index Pollutant
Not available.

Snow Depth

Station Depth Elevation

Earthquake Activity

City Distance Mag. Time & Date
Minimum magnitude displayed is 2.5.

Coastal Water Temperatures

Place Temperature

Stations

Nearby Weather Stations

Station Location Temp. Windchill Dew Point Humidity Wind Precip. Elev Updated Type
                   
Blowing Dust Advisory
Statement as of 1:30 PM PDT on September 04, 2015

... Blowing dust advisory remains in effect until 9 PM PDT this
evening...

A blowing dust advisory remains in effect until 9 PM PDT this
evening.

* Winds... southwest to west 15 to 30 mph with gusts up to 45 mph.

* Visibility: dust will reduce visibility down to 1 mile at times
downwind of the the Smoke Creek and Black Rock deserts. This
includes Black Rock city and The Burning man festival.

Precautionary/preparedness actions...

A blowing dust advisory means that blowing dust will restrict
visibilities. Travelers are urged to use caution.